createdAt,value
2023-04-10T00:00:37.982Z,85.93
2023-04-10T00:03:04.920Z,86.15
2023-04-10T00:05:31.760Z,86.72
2023-04-10T00:07:59.825Z,86.88
2023-04-10T00:10:29.445Z,86.87
2023-04-10T00:12:56.438Z,87.11
2023-04-10T00:15:23.485Z,87.17
2023-04-10T00:17:55.002Z,87.17
2023-04-10T00:20:26.478Z,87.46
2023-04-10T00:22:53.058Z,87.92
2023-04-10T00:25:19.596Z,87.80
2023-04-10T00:27:46.525Z,87.25
2023-04-10T00:30:12.941Z,87.67
2023-04-10T00:32:39.564Z,87.76
2023-04-10T00:35:08.205Z,87.69
2023-04-10T00:37:34.702Z,88.23
2023-04-10T00:40:01.657Z,88.24
2023-04-10T00:42:28.089Z,88.40
2023-04-10T00:44:54.652Z,88.33
2023-04-10T00:47:21.744Z,87.97
2023-04-10T00:49:48.225Z,88.21
2023-04-10T00:52:14.581Z,88.24
2023-04-10T00:54:41.371Z,88.77
2023-04-10T00:57:08.084Z,88.67
2023-04-10T00:59:36.063Z,89.12
2023-04-10T01:02:03.270Z,89.03
2023-04-10T01:04:31.230Z,88.72
2023-04-10T01:07:15.103Z,90.20
2023-04-10T01:09:46.471Z,90.79
2023-04-10T01:12:45.686Z,90.44
2023-04-10T01:15:16.288Z,90.16
2023-04-10T01:17:54.786Z,90.99
2023-04-10T01:20:27.040Z,90.55
2023-04-10T01:23:13.946Z,91.17
2023-04-10T01:25:47.114Z,91.03
2023-04-10T01:28:19.825Z,90.57
2023-04-10T01:30:47.797Z,90.96
2023-04-10T01:33:18.693Z,90.86
2023-04-10T01:35:53.454Z,90.91
2023-04-10T01:38:21.479Z,91.00
2023-04-10T01:40:51.264Z,91.39
2023-04-10T01:43:18.485Z,91.21
2023-04-10T01:45:46.761Z,92.72
2023-04-10T01:48:13.489Z,93.13
2023-04-10T01:50:41.010Z,93.14
2023-04-10T01:53:09.318Z,92.47
2023-04-10T01:55:37.578Z,92.55
2023-04-10T01:58:04.914Z,93.82
2023-04-10T02:00:37.903Z,93.88
2023-04-10T02:03:04.561Z,94.78
2023-04-10T02:05:39.616Z,94.70
2023-04-10T02:08:12.811Z,93.94
2023-04-10T02:10:52.386Z,93.61
2023-04-10T02:13:22.105Z,94.07
2023-04-10T02:15:50.673Z,93.12
2023-04-10T02:18:18.657Z,93.40
2023-04-10T02:20:45.537Z,92.73
2023-04-10T02:23:12.021Z,93.51
2023-04-10T02:25:38.487Z,93.36
2023-04-10T02:28:05.698Z,93.44
2023-04-10T02:30:33.168Z,93.42
2023-04-10T02:33:00.605Z,93.29
2023-04-10T02:35:29.264Z,93.32
2023-04-10T02:37:56.270Z,93.72
2023-04-10T02:40:23.013Z,94.47
2023-04-10T02:42:49.810Z,93.83
2023-04-10T02:45:16.894Z,93.76
2023-04-10T02:47:43.788Z,94.41
2023-04-10T02:50:11.214Z,94.22
2023-04-10T02:52:37.832Z,94.19
2023-04-10T02:55:04.980Z,93.76
2023-04-10T02:57:31.775Z,94.17
2023-04-10T02:59:58.224Z,94.61
2023-04-10T03:02:24.819Z,94.04
2023-04-10T03:04:53.490Z,93.23
2023-04-10T03:07:20.400Z,93.84
2023-04-10T03:09:46.809Z,93.72
2023-04-10T03:12:13.252Z,93.84
2023-04-10T03:14:40.691Z,93.25
2023-04-10T03:17:07.537Z,93.23
2023-04-10T03:19:33.988Z,93.59
2023-04-10T03:22:00.741Z,92.83
2023-04-10T03:24:27.288Z,93.31
2023-04-10T03:26:54.028Z,93.24
2023-04-10T03:29:20.589Z,93.11
2023-04-10T03:31:46.984Z,93.75
2023-04-10T03:34:13.462Z,92.80
2023-04-10T03:36:39.948Z,92.49
2023-04-10T03:39:06.807Z,92.59
2023-04-10T03:41:33.254Z,92.48
2023-04-10T03:44:03.167Z,92.47
2023-04-10T03:46:29.587Z,92.60
2023-04-10T03:48:56.018Z,92.81
2023-04-10T03:51:24.517Z,92.92
2023-04-10T03:53:52.197Z,92.96
2023-04-10T03:56:19.009Z,92.71
2023-04-10T03:58:45.412Z,92.38
2023-04-10T04:01:12.564Z,92.78
2023-04-10T04:03:39.186Z,92.23
2023-04-10T04:06:06.207Z,92.60
2023-04-10T04:08:32.696Z,92.18
2023-04-10T04:10:59.121Z,92.32
2023-04-10T04:13:25.569Z,92.20
2023-04-10T04:15:52.032Z,92.26
2023-04-10T04:18:18.473Z,92.61
2023-04-10T04:20:44.833Z,93.13
2023-04-10T04:23:11.707Z,92.88
2023-04-10T04:25:38.135Z,93.64
2023-04-10T04:28:04.522Z,93.88
2023-04-10T04:30:31.045Z,93.43
2023-04-10T04:32:57.502Z,93.73
2023-04-10T04:35:24.939Z,93.29
2023-04-10T04:37:51.369Z,93.54
2023-04-10T04:40:17.723Z,93.35
2023-04-10T04:42:44.478Z,93.59
2023-04-10T04:45:11.237Z,93.18
2023-04-10T04:47:37.752Z,92.82
2023-04-10T04:50:04.704Z,93.53
2023-04-10T04:52:32.152Z,92.85
2023-04-10T04:54:58.595Z,93.14
2023-04-10T04:57:25.384Z,93.30
2023-04-10T04:59:51.942Z,94.26
2023-04-10T05:02:18.884Z,93.42
2023-04-10T05:04:45.812Z,93.50
2023-04-10T05:07:13.318Z,93.50
2023-04-10T05:09:39.815Z,93.80
2023-04-10T05:12:06.425Z,92.86
2023-04-10T05:14:33.882Z,92.70
2023-04-10T05:17:02.944Z,92.33
2023-04-10T05:19:29.932Z,91.39
2023-04-10T05:21:56.673Z,91.23
2023-04-10T05:24:23.117Z,91.23
2023-04-10T05:26:49.527Z,90.52
2023-04-10T05:29:16.035Z,89.67
2023-04-10T05:31:42.658Z,87.35
2023-04-10T05:34:09.358Z,85.94
2023-04-10T05:36:36.708Z,86.44
2023-04-10T05:39:04.233Z,83.66
2023-04-10T05:41:31.768Z,80.58
2023-04-10T05:43:58.371Z,77.39
2023-04-10T05:46:24.816Z,77.32
2023-04-10T05:48:51.353Z,78.63
2023-04-10T05:51:18.785Z,76.75
2023-04-10T05:53:45.300Z,75.50
2023-04-10T05:56:11.712Z,75.38
2023-04-10T05:58:38.161Z,75.96
2023-04-10T06:01:04.953Z,76.51
2023-04-10T06:03:31.898Z,76.31
2023-04-10T06:06:00.491Z,75.69
2023-04-10T06:08:26.964Z,71.31
2023-04-10T06:10:53.496Z,67.22
2023-04-10T06:13:19.934Z,64.35
2023-04-10T06:15:46.331Z,63.34
2023-04-10T06:18:12.840Z,65.76
2023-04-10T06:20:39.319Z,58.99
2023-04-10T06:23:06.328Z,59.11
2023-04-10T06:25:32.814Z,55.25
2023-04-10T06:27:59.480Z,51.65
2023-04-10T06:30:26.255Z,52.00
2023-04-10T06:32:52.620Z,49.83
2023-04-10T06:35:19.086Z,48.38
2023-04-10T06:37:45.435Z,48.58
2023-04-10T06:40:13.967Z,46.69
2023-04-10T06:42:41.464Z,44.78
2023-04-10T06:45:08.905Z,43.33
2023-04-10T06:47:35.558Z,42.07
2023-04-10T06:50:02.109Z,44.30
2023-04-10T06:52:28.532Z,43.56
2023-04-10T06:54:54.892Z,40.43
2023-04-10T06:57:21.754Z,41.36
2023-04-10T06:59:48.176Z,40.56
2023-04-10T07:02:14.743Z,41.28
2023-04-10T07:04:42.304Z,42.38
2023-04-10T07:07:09.997Z,41.17
2023-04-10T07:09:36.785Z,41.07
2023-04-10T07:12:04.351Z,39.57
2023-04-10T07:14:33.470Z,40.70
2023-04-10T07:17:00.245Z,42.19
2023-04-10T07:19:27.143Z,38.86
2023-04-10T07:21:53.630Z,36.20
2023-04-10T07:24:20.088Z,38.50
2023-04-10T07:26:46.721Z,36.74
2023-04-10T07:29:14.055Z,37.32
2023-04-10T07:31:41.172Z,36.36
2023-04-10T07:34:07.821Z,36.17
2023-04-10T07:36:34.644Z,37.70
2023-04-10T07:39:01.393Z,37.16
2023-04-10T07:41:27.974Z,39.00
2023-04-10T07:43:54.522Z,35.64
2023-04-10T07:46:21.183Z,35.59
2023-04-10T07:48:48.086Z,33.10
2023-04-10T07:51:14.497Z,35.42
2023-04-10T07:53:40.928Z,35.61
2023-04-10T07:56:08.392Z,34.35
2023-04-10T07:58:34.824Z,32.69
2023-04-10T08:01:01.872Z,35.02
2023-04-10T08:03:28.455Z,38.72
2023-04-10T08:05:55.183Z,37.40
2023-04-10T08:08:21.729Z,37.96
2023-04-10T08:10:48.708Z,37.36
2023-04-10T08:13:15.577Z,37.09
2023-04-10T08:15:42.502Z,35.34
2023-04-10T08:18:08.902Z,33.67
2023-04-10T08:20:37.114Z,33.58
2023-04-10T08:23:19.132Z,37.36
2023-04-10T08:25:47.696Z,34.34
2023-04-10T08:28:14.106Z,33.93
2023-04-10T08:30:40.552Z,30.20
2023-04-10T08:33:07.045Z,30.14
2023-04-10T08:35:33.727Z,30.79
2023-04-10T08:38:12.805Z,30.64
2023-04-10T08:40:40.288Z,29.57
2023-04-10T08:43:06.799Z,29.09
2023-04-10T08:45:33.692Z,27.56
2023-04-10T08:48:03.690Z,31.17
2023-04-10T08:50:31.742Z,30.17
2023-04-10T08:53:00.129Z,31.78
2023-04-10T08:55:26.764Z,30.36
2023-04-10T08:58:00.581Z,30.40
2023-04-10T09:00:28.822Z,30.74
2023-04-10T09:02:58.345Z,29.32
2023-04-10T09:05:29.673Z,29.61
2023-04-10T09:07:58.093Z,29.73
2023-04-10T09:10:24.578Z,29.07
2023-04-10T09:12:52.173Z,29.78
2023-04-10T09:15:18.572Z,29.53
2023-04-10T09:18:05.564Z,29.59
2023-04-10T09:20:33.212Z,30.44
2023-04-10T09:23:00.195Z,28.48
2023-04-10T09:25:38.994Z,29.82
2023-04-10T09:28:07.397Z,30.43
2023-04-10T09:30:35.355Z,29.77
2023-04-10T09:33:03.414Z,31.25
2023-04-10T09:35:38.233Z,32.08
2023-04-10T09:38:19.133Z,27.75
2023-04-10T09:40:47.568Z,32.76
2023-04-10T09:43:25.194Z,32.70
2023-04-10T09:45:59.216Z,33.20
2023-04-10T09:48:26.743Z,29.00
2023-04-10T09:50:53.238Z,29.93
2023-04-10T09:53:20.748Z,31.53
2023-04-10T09:55:49.286Z,30.03
2023-04-10T09:58:16.579Z,29.33
2023-04-10T10:00:44.701Z,32.43
2023-04-10T10:03:19.043Z,30.75
2023-04-10T10:05:50.901Z,28.64
2023-04-10T10:08:18.173Z,29.13
2023-04-10T10:10:51.897Z,29.47
2023-04-10T10:13:24.312Z,30.51
2023-04-10T10:16:03.988Z,28.77
2023-04-10T10:18:45.441Z,29.55
2023-04-10T10:21:16.936Z,29.29
2023-04-10T10:23:44.335Z,29.90
2023-04-10T10:26:11.471Z,28.86
2023-04-10T10:28:40.718Z,27.67
2023-04-10T10:31:07.363Z,30.22
2023-04-10T10:33:38.110Z,31.15
2023-04-10T10:36:05.049Z,31.67
2023-04-10T10:38:33.000Z,31.09
2023-04-10T10:41:09.517Z,31.09
2023-04-10T10:43:51.709Z,28.94
2023-04-10T10:46:40.929Z,29.15
2023-04-10T10:49:07.366Z,28.25
2023-04-10T10:51:43.737Z,27.04
2023-04-10T10:54:29.015Z,29.16
2023-04-10T10:56:55.524Z,31.49
2023-04-10T10:59:44.010Z,29.31
2023-04-10T11:02:18.401Z,30.22
2023-04-10T11:04:46.318Z,32.88
2023-04-10T11:07:13.651Z,34.23
2023-04-10T11:09:51.456Z,35.14
2023-04-10T11:12:25.403Z,31.28
2023-04-10T11:14:59.014Z,31.63
2023-04-10T11:17:51.863Z,31.66
2023-04-10T11:20:21.857Z,30.37
2023-04-10T11:23:13.987Z,30.70
2023-04-10T11:25:47.366Z,30.34
2023-04-10T11:28:36.881Z,31.55
2023-04-10T11:31:22.134Z,31.62
2023-04-10T11:33:52.019Z,33.76
2023-04-10T11:36:18.707Z,30.13
2023-04-10T11:39:06.089Z,33.24
2023-04-10T11:41:34.369Z,32.76
2023-04-10T11:44:02.819Z,34.22
2023-04-10T11:46:29.460Z,33.70
2023-04-10T11:48:58.117Z,33.67
2023-04-10T11:51:24.788Z,33.83
2023-04-10T11:54:04.567Z,34.55
2023-04-10T11:56:31.215Z,33.61
2023-04-10T11:58:58.188Z,31.61
2023-04-10T12:01:24.922Z,31.03
2023-04-10T12:03:51.703Z,32.38
2023-04-10T12:06:21.314Z,31.11
2023-04-10T12:08:51.410Z,31.31
2023-04-10T12:11:22.762Z,32.42
2023-04-10T12:13:52.871Z,34.72
2023-04-10T12:16:19.476Z,32.77
2023-04-10T12:18:46.271Z,31.75
2023-04-10T12:21:12.773Z,31.99
2023-04-10T12:23:40.465Z,31.49
2023-04-10T12:26:09.470Z,32.56
2023-04-10T12:28:37.874Z,32.13
2023-04-10T12:31:04.922Z,31.51
2023-04-10T12:33:31.664Z,30.36
2023-04-10T12:35:59.163Z,30.95
2023-04-10T12:38:45.110Z,31.24
2023-04-10T12:41:11.958Z,31.23
2023-04-10T12:43:39.986Z,31.66
2023-04-10T12:46:08.280Z,29.78
2023-04-10T12:48:34.935Z,30.85
2023-04-10T12:51:02.037Z,30.08
2023-04-10T12:53:28.512Z,29.54
2023-04-10T12:56:03.807Z,28.70
2023-04-10T12:58:31.569Z,30.33
2023-04-10T13:01:05.987Z,30.20
2023-04-10T13:03:36.835Z,28.50
2023-04-10T13:06:06.128Z,29.11
2023-04-10T13:08:32.743Z,27.77
2023-04-10T13:11:03.075Z,28.03
2023-04-10T13:13:33.007Z,27.37
2023-04-10T13:16:00.141Z,28.04
2023-04-10T13:18:26.881Z,29.09
2023-04-10T13:20:53.503Z,28.86
2023-04-10T13:23:19.932Z,29.29
2023-04-10T13:25:46.824Z,28.30
2023-04-10T13:28:13.412Z,27.72
2023-04-10T13:30:41.782Z,27.71
2023-04-10T13:33:11.346Z,27.44
2023-04-10T13:35:40.042Z,28.32
2023-04-10T13:38:07.301Z,29.40
2023-04-10T13:40:33.717Z,29.63
2023-04-10T13:43:00.630Z,29.45
2023-04-10T13:45:28.442Z,29.33
2023-04-10T13:47:55.071Z,29.76
2023-04-10T13:50:21.501Z,28.98
2023-04-10T13:52:48.103Z,29.76
2023-04-10T13:55:14.582Z,29.31
2023-04-10T13:57:41.932Z,29.04
2023-04-10T14:00:08.750Z,28.73
2023-04-10T14:02:35.524Z,29.46
2023-04-10T14:05:02.183Z,30.05
2023-04-10T14:07:28.741Z,29.86
2023-04-10T14:09:55.256Z,30.69
2023-04-10T14:12:23.163Z,30.44
2023-04-10T14:14:50.071Z,30.21
2023-04-10T14:17:16.579Z,29.00
2023-04-10T14:19:43.290Z,29.23
2023-04-10T14:22:10.053Z,29.73
2023-04-10T14:24:36.430Z,29.68
2023-04-10T14:27:02.868Z,29.49
2023-04-10T14:31:59.222Z,30.70
2023-04-10T14:34:25.746Z,30.43
2023-04-10T14:36:55.834Z,30.20
2023-04-10T14:39:24.471Z,30.03
2023-04-10T14:41:51.699Z,30.67
2023-04-10T14:44:18.500Z,29.50
2023-04-10T14:46:45.881Z,30.32
2023-04-10T14:49:13.674Z,29.66
2023-04-10T14:51:42.987Z,30.29
2023-04-10T14:54:09.364Z,29.98
2023-04-10T14:56:36.040Z,30.41
2023-04-10T14:59:02.386Z,29.51
2023-04-10T15:01:28.852Z,29.68
2023-04-10T15:03:55.654Z,30.20
2023-04-10T15:06:22.616Z,31.04
2023-04-10T15:08:49.154Z,31.09
2023-04-10T15:11:15.550Z,31.71
2023-04-10T15:13:41.988Z,31.27
2023-04-10T15:16:08.353Z,31.16
2023-04-10T15:18:34.986Z,32.28
2023-04-10T15:21:01.605Z,32.51
2023-04-10T15:23:28.055Z,32.22
2023-04-10T15:25:54.982Z,32.75
2023-04-10T15:28:21.440Z,32.38
2023-04-10T15:30:49.716Z,33.06
2023-04-10T15:33:17.091Z,32.99
2023-04-10T15:35:47.873Z,32.64
2023-04-10T15:38:14.326Z,32.91
2023-04-10T15:40:40.929Z,32.99
2023-04-10T15:43:07.641Z,33.77
2023-04-10T15:45:35.938Z,33.42
2023-04-10T15:48:04.590Z,32.92
2023-04-10T15:50:31.344Z,33.66
2023-04-10T15:52:58.131Z,33.58
2023-04-10T15:55:24.641Z,33.99
2023-04-10T15:57:51.094Z,34.02
2023-04-10T16:00:17.925Z,34.35
2023-04-10T16:02:44.798Z,34.06
2023-04-10T16:05:11.681Z,33.56
2023-04-10T16:07:39.171Z,34.12
2023-04-10T16:10:06.656Z,33.69
2023-04-10T16:12:33.089Z,33.23
2023-04-10T16:14:59.529Z,33.44
2023-04-10T16:17:26.030Z,33.50
2023-04-10T16:19:52.699Z,34.18
2023-04-10T16:22:19.172Z,34.03
2023-04-10T16:24:46.785Z,34.16
2023-04-10T16:27:13.319Z,34.26
2023-04-10T16:29:41.577Z,34.87
2023-04-10T16:32:08.078Z,35.13
2023-04-10T16:34:34.563Z,35.56
2023-04-10T16:37:01.033Z,35.30
2023-04-10T16:39:27.403Z,35.50
2023-04-10T16:41:54.016Z,34.78
2023-04-10T16:44:20.508Z,34.87
2023-04-10T16:46:46.943Z,35.51
2023-04-10T16:49:13.722Z,35.12
2023-04-10T16:51:40.197Z,34.90
2023-04-10T16:54:07.130Z,35.51
2023-04-10T16:56:33.847Z,35.19
2023-04-10T16:59:00.292Z,35.00
2023-04-10T17:01:28.341Z,35.73
2023-04-10T17:03:55.289Z,35.79
2023-04-10T17:06:22.180Z,35.64
2023-04-10T17:08:48.684Z,35.91
2023-04-10T17:11:16.014Z,35.78
2023-04-10T17:13:42.502Z,36.11
2023-04-10T17:16:09.990Z,36.62
2023-04-10T17:18:36.584Z,36.92
2023-04-10T17:21:03.211Z,37.00
2023-04-10T17:23:29.884Z,36.80
2023-04-10T17:25:56.372Z,37.23
2023-04-10T17:28:23.005Z,36.98
2023-04-10T17:30:49.417Z,37.83
2023-04-10T17:33:15.826Z,37.09
2023-04-10T17:35:42.340Z,37.21
2023-04-10T17:38:08.926Z,37.63
2023-04-10T17:40:37.030Z,38.24
2023-04-10T17:43:03.470Z,37.90
2023-04-10T17:45:29.901Z,37.71
2023-04-10T17:47:56.923Z,38.29
2023-04-10T17:50:24.041Z,38.02
2023-04-10T17:52:50.407Z,38.36
2023-04-10T17:55:20.502Z,38.21
2023-04-10T17:57:47.858Z,38.50
2023-04-10T18:00:15.667Z,39.08
2023-04-10T18:02:43.132Z,38.75
2023-04-10T18:05:09.759Z,39.33
2023-04-10T18:07:37.340Z,39.26
2023-04-10T18:10:09.789Z,39.31
2023-04-10T18:12:37.532Z,39.56
2023-04-10T18:15:04.476Z,39.66
2023-04-10T18:17:31.030Z,39.41
2023-04-10T18:19:57.649Z,40.55
2023-04-10T18:22:24.213Z,39.72
2023-04-10T18:24:50.658Z,39.92
2023-04-10T18:27:17.072Z,40.10
2023-04-10T18:29:45.782Z,40.10
2023-04-10T18:32:12.441Z,40.36
2023-04-10T18:34:39.577Z,40.21
2023-04-10T18:37:08.909Z,40.37
2023-04-10T18:39:38.176Z,41.23
2023-04-10T18:42:10.833Z,40.77
2023-04-10T18:44:37.892Z,41.50
2023-04-10T18:47:05.329Z,41.04
2023-04-10T18:49:32.439Z,41.65
2023-04-10T18:51:59.283Z,42.95
2023-04-10T18:54:28.657Z,42.93
2023-04-10T18:56:56.876Z,43.39
2023-04-10T18:59:24.067Z,44.39
2023-04-10T19:01:51.221Z,44.85
2023-04-10T19:04:17.900Z,44.72
2023-04-10T19:06:46.218Z,45.41
2023-04-10T19:09:13.439Z,46.01
2023-04-10T19:11:40.091Z,46.25
2023-04-10T19:14:06.917Z,45.88
2023-04-10T19:19:05.159Z,46.55
2023-04-10T19:21:31.745Z,46.77
2023-04-10T19:23:58.943Z,47.12
2023-04-10T19:26:25.864Z,48.02
2023-04-10T19:28:52.403Z,47.41
2023-04-10T19:31:19.708Z,48.58
2023-04-10T19:33:46.220Z,47.63
2023-04-10T19:36:15.492Z,47.90
2023-04-10T19:38:44.447Z,48.15
2023-04-10T19:41:15.096Z,48.58
2023-04-10T19:43:41.742Z,48.11
2023-04-10T19:46:18.605Z,48.32
2023-04-10T19:48:45.608Z,48.75
2023-04-10T19:51:12.060Z,48.63
2023-04-10T19:53:38.656Z,49.64
2023-04-10T19:56:05.937Z,47.97
2023-04-10T19:58:40.442Z,48.93
2023-04-10T20:01:11.942Z,48.24
2023-04-10T20:03:39.191Z,48.61
2023-04-10T20:06:10.034Z,49.31
2023-04-10T20:08:36.633Z,48.99
2023-04-10T20:11:06.188Z,48.92
2023-04-10T20:13:34.313Z,49.36
2023-04-10T20:16:01.028Z,49.42
2023-04-10T20:18:27.513Z,48.94
2023-04-10T20:20:53.974Z,48.54
2023-04-10T20:23:20.538Z,48.66
2023-04-10T20:25:47.578Z,49.35
2023-04-10T20:28:15.497Z,50.03
2023-04-10T20:30:43.819Z,50.18
2023-04-10T20:33:11.544Z,49.77
2023-04-10T20:35:42.304Z,50.30
2023-04-10T20:38:11.925Z,50.14
2023-04-10T20:40:38.392Z,50.22
2023-04-10T20:43:10.905Z,49.97
2023-04-10T20:45:38.678Z,50.52
2023-04-10T20:48:05.740Z,51.05
2023-04-10T20:50:32.412Z,50.13
2023-04-10T20:52:58.836Z,51.25
2023-04-10T20:55:26.235Z,50.61
2023-04-10T20:57:53.373Z,51.29
2023-04-10T21:00:20.225Z,50.99
2023-04-10T21:02:47.101Z,51.14
2023-04-10T21:05:14.918Z,51.06
2023-04-10T21:07:43.165Z,51.37
2023-04-10T21:10:10.928Z,51.69
2023-04-10T21:12:37.698Z,51.89
2023-04-10T21:15:04.410Z,51.25
2023-04-10T21:17:33.075Z,51.90
2023-04-10T21:20:00.253Z,51.01
2023-04-10T21:22:29.130Z,51.40
2023-04-10T21:24:55.946Z,51.18
2023-04-10T21:27:22.374Z,51.74
2023-04-10T21:29:48.850Z,51.30
2023-04-10T21:32:16.358Z,51.30
2023-04-10T21:34:42.929Z,50.88
2023-04-10T21:37:09.393Z,50.55
2023-04-10T21:39:35.808Z,51.36
2023-04-10T21:42:02.246Z,51.64
2023-04-10T21:44:28.659Z,51.89
2023-04-10T21:46:55.090Z,51.99
2023-04-10T21:49:21.418Z,51.90
2023-04-10T21:51:47.874Z,51.07
2023-04-10T21:54:14.264Z,52.22
2023-04-10T21:56:41.369Z,52.04
2023-04-10T21:59:08.215Z,51.01
2023-04-10T22:01:34.809Z,51.09
2023-04-10T22:04:01.391Z,50.94
2023-04-10T22:06:27.974Z,51.05
2023-04-10T22:08:55.031Z,50.93
2023-04-10T22:11:21.645Z,51.02
2023-04-10T22:14:25.996Z,50.64
2023-04-10T22:16:57.816Z,50.80
2023-04-10T22:19:25.666Z,51.67
2023-04-10T22:21:52.311Z,51.51
2023-04-10T22:24:18.820Z,51.34
2023-04-10T22:26:46.180Z,51.12
2023-04-10T22:29:14.555Z,51.14
2023-04-10T22:31:41.870Z,50.73
2023-04-10T22:34:09.330Z,50.89
2023-04-10T22:36:36.626Z,51.39
2023-04-10T22:39:03.596Z,50.41
2023-04-10T22:41:30.575Z,50.89
2023-04-10T22:43:57.028Z,50.97
2023-04-10T22:46:23.716Z,51.38
2023-04-10T22:48:50.165Z,51.53
2023-04-10T22:51:17.294Z,51.51
2023-04-10T22:53:43.700Z,50.84
2023-04-10T22:56:10.556Z,51.25
2023-04-10T22:58:40.469Z,51.33
2023-04-10T23:01:08.230Z,51.19
2023-04-10T23:03:35.492Z,50.02
2023-04-10T23:06:02.263Z,50.39
2023-04-10T23:08:28.828Z,50.11
2023-04-10T23:10:55.697Z,50.58
2023-04-10T23:13:22.539Z,50.06
2023-04-10T23:15:50.144Z,49.89
2023-04-10T23:18:17.095Z,50.09
2023-04-10T23:20:43.607Z,50.10
2023-04-10T23:23:10.155Z,50.03
2023-04-10T23:25:36.813Z,49.77
2023-04-10T23:28:04.045Z,49.94
2023-04-10T23:30:31.101Z,50.19
2023-04-10T23:32:57.819Z,49.43
2023-04-10T23:35:27.138Z,49.33
2023-04-10T23:37:53.658Z,49.84
2023-04-10T23:40:21.683Z,49.82
2023-04-10T23:42:48.699Z,49.65
2023-04-10T23:45:15.549Z,50.34
2023-04-10T23:47:42.088Z,50.33
2023-04-10T23:50:09.004Z,50.80
2023-04-10T23:52:35.397Z,50.75
2023-04-10T23:55:01.758Z,51.87
2023-04-10T23:57:28.199Z,51.46
2023-04-10T23:59:54.601Z,51.16
